Terminal Aerodrome Forecast
Issued by NWS Blacksburg, VA

Current Version | Previous Version | Text Only | Print | Product List | Glossary Off
Versions: 1 2 3 4 5 6 7 8 9 10 11 12 13 14 15 16 17 18

000
FTUS41 KRNK 162320
TAFBLF
TAF
KBLF 162320Z 1700/1724 27006KT P6SM BKN070
     FM171200 26008KT P6SM SCT130=

USA.gov is the U.S. government's official web portal to all federal, state and local government web resources and services.